createdAt,value
2018-11-07T00:02:50.727Z,100439.30
2018-11-07T00:05:54.749Z,100446.13
2018-11-07T00:08:58.621Z,100440.13
2018-11-07T00:12:02.514Z,100440.37
2018-11-07T00:15:08.382Z,100444.21
2018-11-07T00:18:12.253Z,100457.87
2018-11-07T00:21:16.344Z,100450.86
2018-11-07T00:24:20.567Z,100446.83
2018-11-07T00:27:24.446Z,100436.10
2018-11-07T00:30:28.327Z,100438.34
2018-11-07T00:33:32.197Z,100440.06
2018-11-07T00:36:36.076Z,100436.42
2018-11-07T00:39:39.950Z,100429.78
2018-11-07T00:42:43.841Z,100435.40
2018-11-07T00:45:47.721Z,100428.89
2018-11-07T00:48:51.597Z,100428.05
2018-11-07T00:51:55.490Z,100423.27
2018-11-07T00:54:59.376Z,100416.49
2018-11-07T00:58:03.311Z,100407.17
2018-11-07T01:01:07.690Z,100414.77
2018-11-07T01:04:11.591Z,100413.50
2018-11-07T01:07:15.482Z,100408.38
2018-11-07T01:10:19.367Z,100401.30
2018-11-07T01:13:23.439Z,100399.13
2018-11-07T01:16:27.523Z,100391.59
2018-11-07T01:19:31.591Z,100395.42
2018-11-07T01:22:35.473Z,100396.89
2018-11-07T01:25:39.370Z,100391.98
2018-11-07T01:28:43.575Z,100382.14
2018-11-07T01:31:47.817Z,100384.45
2018-11-07T01:34:51.937Z,100384.92
2018-11-07T01:37:56.153Z,100381.38
2018-11-07T01:41:00.043Z,100377.70
2018-11-07T01:44:04.114Z,100379.37
2018-11-07T01:47:08.416Z,100371.26
2018-11-07T01:50:13.239Z,100362.58
2018-11-07T01:53:17.117Z,100353.13
2018-11-07T01:56:21.015Z,100348.15
2018-11-07T01:59:25.265Z,100342.47
2018-11-07T02:02:29.488Z,100340.73
2018-11-07T02:05:33.374Z,100347.44
2018-11-07T02:08:37.259Z,100343.45
2018-11-07T02:11:41.149Z,100341.65
2018-11-07T02:14:45.049Z,100344.52
2018-11-07T02:17:48.920Z,100341.07
2018-11-07T02:20:52.804Z,100339.86
2018-11-07T02:23:56.696Z,100325.88
2018-11-07T02:27:00.573Z,100327.47
2018-11-07T02:30:05.642Z,100325.64
2018-11-07T02:33:09.871Z,100322.36
2018-11-07T02:36:13.733Z,100324.81
2018-11-07T02:39:17.827Z,100328.75
2018-11-07T02:42:21.703Z,100326.58
2018-11-07T02:45:25.801Z,100332.64
2018-11-07T02:48:29.694Z,100345.86
2018-11-07T02:51:33.778Z,100353.34
2018-11-07T02:54:37.882Z,100347.78
2018-11-07T02:57:41.753Z,100343.83
2018-11-07T03:00:45.983Z,100341.50
2018-11-07T03:03:50.085Z,100337.80
2018-11-07T03:06:54.154Z,100339.59
2018-11-07T03:09:58.103Z,100343.30
2018-11-07T03:13:02.129Z,100330.66
2018-11-07T03:16:06.220Z,100330.44
2018-11-07T03:19:10.441Z,100326.23
2018-11-07T03:22:14.661Z,100333.44
2018-11-07T03:25:18.549Z,100332.55
2018-11-07T03:28:22.432Z,100322.46
2018-11-07T03:31:26.516Z,100329.88
2018-11-07T03:34:30.382Z,100322.66
2018-11-07T03:37:34.600Z,100330.19
2018-11-07T03:40:38.823Z,100340.34
2018-11-07T03:43:42.907Z,100338.09
2018-11-07T03:46:46.982Z,100343.94
2018-11-07T03:49:50.852Z,100338.37
2018-11-07T03:52:54.777Z,100351.09
2018-11-07T03:55:58.811Z,100343.30
2018-11-07T03:59:02.703Z,100347.19
2018-11-07T04:02:07.117Z,100345.98
2018-11-07T04:05:12.144Z,100349.11
2018-11-07T04:08:16.217Z,100352.87
2018-11-07T04:11:20.106Z,100358.98
2018-11-07T04:14:24.243Z,100361.14
2018-11-07T04:17:28.112Z,100368.67
2018-11-07T04:20:32.082Z,100362.11
2018-11-07T04:23:36.197Z,100365.48
2018-11-07T04:26:40.085Z,100370.22
2018-11-07T04:29:44.173Z,100371.81
2018-11-07T04:32:48.268Z,100369.31
2018-11-07T04:35:52.140Z,100359.42
2018-11-07T04:38:56.558Z,100353.42
2018-11-07T04:42:00.611Z,100356.20
2018-11-07T04:45:04.500Z,100360.41
2018-11-07T04:48:08.398Z,100360.34
2018-11-07T04:51:12.869Z,100360.66
2018-11-07T04:54:16.749Z,100368.70
2018-11-07T04:57:20.843Z,100370.88
2018-11-07T05:00:25.030Z,100374.22
2018-11-07T05:03:29.369Z,100359.98
2018-11-07T05:06:33.245Z,100359.59
2018-11-07T05:09:37.129Z,100358.25
2018-11-07T05:12:41.341Z,100359.91
2018-11-07T05:15:45.234Z,100358.95
2018-11-07T05:18:49.108Z,100368.24
2018-11-07T05:21:53.321Z,100366.17
2018-11-07T05:24:57.210Z,100365.11
2018-11-07T05:28:01.115Z,100360.06
2018-11-07T05:31:05.191Z,100365.17
2018-11-07T05:34:09.430Z,100363.83
2018-11-07T05:37:13.309Z,100373.47
2018-11-07T05:40:17.201Z,100380.88
2018-11-07T05:43:21.289Z,100382.80
2018-11-07T05:46:25.371Z,100382.03
2018-11-07T05:49:29.245Z,100372.57
2018-11-07T05:52:33.656Z,100370.75
2018-11-07T05:55:37.549Z,100363.46
2018-11-07T05:58:41.426Z,100359.24
2018-11-07T06:01:45.858Z,100363.95
2018-11-07T06:04:49.754Z,100373.75
2018-11-07T06:07:53.635Z,100377.45
2018-11-07T06:10:57.505Z,100374.89
2018-11-07T06:14:01.384Z,100388.81
2018-11-07T06:17:06.121Z,100387.98
2018-11-07T06:20:11.263Z,100385.05
2018-11-07T06:23:15.155Z,100401.72
2018-11-07T06:26:19.264Z,100415.64
2018-11-07T06:29:23.225Z,100406.83
2018-11-07T06:32:27.107Z,100397.84
2018-11-07T06:35:31.008Z,100397.77
2018-11-07T06:38:34.908Z,100397.91
2018-11-07T06:41:39.179Z,100408.64
2018-11-07T06:44:43.269Z,100407.30
2018-11-07T06:47:47.160Z,100408.75
2018-11-07T06:50:51.062Z,100413.80
2018-11-07T06:53:54.950Z,100421.81
2018-11-07T06:56:58.841Z,100431.59
2018-11-07T07:00:02.977Z,100427.69
2018-11-07T07:03:06.873Z,100437.02
2018-11-07T07:06:10.929Z,100437.02
2018-11-07T07:09:14.824Z,100433.56
2018-11-07T07:12:18.712Z,100440.72
2018-11-07T07:15:22.605Z,100436.81
2018-11-07T07:18:26.822Z,100430.36
2018-11-07T07:21:30.705Z,100440.55
2018-11-07T07:24:34.595Z,100448.98
2018-11-07T07:27:38.516Z,100444.70
2018-11-07T07:30:42.394Z,100447.25
2018-11-07T07:33:46.552Z,100455.30
2018-11-07T07:36:50.903Z,100467.57
2018-11-07T07:39:54.774Z,100455.62
2018-11-07T07:42:58.850Z,100456.38
2018-11-07T07:46:03.745Z,100463.09
2018-11-07T07:49:07.976Z,100462.70
2018-11-07T07:52:12.049Z,100465.64
2018-11-07T07:55:15.942Z,100465.23
2018-11-07T07:58:19.820Z,100473.28
2018-11-07T08:01:23.701Z,100472.70
2018-11-07T08:04:27.585Z,100474.67
2018-11-07T08:07:31.457Z,100477.23
2018-11-07T08:10:35.359Z,100473.77
2018-11-07T08:13:39.517Z,100475.71
2018-11-07T08:16:43.893Z,100477.44
2018-11-07T08:19:48.117Z,100481.20
2018-11-07T08:22:52.000Z,100484.59
2018-11-07T08:25:55.881Z,100494.31
2018-11-07T08:29:00.216Z,100487.02
2018-11-07T08:32:04.273Z,100483.11
2018-11-07T08:35:09.439Z,100480.90
2018-11-07T08:38:13.310Z,100481.66
2018-11-07T08:41:17.195Z,100479.48
2018-11-07T08:44:21.623Z,100481.39
2018-11-07T08:47:25.505Z,100482.56
2018-11-07T08:50:29.384Z,100485.05
2018-11-07T08:53:33.265Z,100490.52
2018-11-07T08:56:37.717Z,100485.70
2018-11-07T08:59:41.933Z,100494.14
2018-11-07T09:02:46.091Z,100488.53
2018-11-07T09:05:49.966Z,100493.52
2018-11-07T09:08:54.190Z,100492.55
2018-11-07T09:11:58.126Z,100505.66
2018-11-07T09:15:02.206Z,100505.13
2018-11-07T09:18:06.321Z,100511.94
2018-11-07T09:21:10.539Z,100507.13
2018-11-07T09:24:15.003Z,100506.55
2018-11-07T09:27:19.029Z,100500.97
2018-11-07T09:30:23.758Z,100509.86
2018-11-07T09:33:27.660Z,100521.20
2018-11-07T09:36:31.729Z,100543.34
2018-11-07T09:39:35.666Z,100537.70
2018-11-07T09:42:40.651Z,100536.35
2018-11-07T09:45:46.160Z,100532.44
2018-11-07T09:48:50.217Z,100540.88
2018-11-07T09:51:54.289Z,100545.97
2018-11-07T09:54:58.177Z,100545.06
2018-11-07T09:58:02.067Z,100536.48
2018-11-07T10:01:06.205Z,100539.35
2018-11-07T10:04:10.125Z,100533.71
2018-11-07T10:07:14.002Z,100527.23
2018-11-07T10:10:19.238Z,100526.34
2018-11-07T10:13:23.430Z,100529.69
2018-11-07T10:16:27.322Z,100533.01
2018-11-07T10:19:31.216Z,100533.70
2018-11-07T10:22:35.084Z,100527.60
2018-11-07T10:25:38.996Z,100527.98
2018-11-07T10:28:43.088Z,100524.92
2018-11-07T10:31:46.980Z,100522.67
2018-11-07T10:34:50.886Z,100522.14
2018-11-07T10:37:54.848Z,100522.91
2018-11-07T10:40:58.903Z,100521.10
2018-11-07T10:44:02.954Z,100519.70
2018-11-07T10:47:07.054Z,100520.01
2018-11-07T10:50:12.021Z,100525.81
2018-11-07T10:53:16.090Z,100527.02
2018-11-07T10:56:20.177Z,100520.88
2018-11-07T10:59:24.062Z,100522.47
2018-11-07T11:02:33.331Z,100522.32
2018-11-07T11:05:38.346Z,100525.97
2018-11-07T11:08:42.238Z,100522.81
2018-11-07T11:11:46.130Z,100523.94
2018-11-07T11:14:50.042Z,100536.19
2018-11-07T11:17:53.924Z,100547.12
2018-11-07T11:20:58.625Z,100552.92
2018-11-07T11:24:02.510Z,100556.58
2018-11-07T11:27:06.801Z,100559.37
2018-11-07T11:30:10.985Z,100568.57
2018-11-07T11:33:14.869Z,100570.19
2018-11-07T11:36:18.971Z,100576.37
2018-11-07T11:39:22.861Z,100571.09
2018-11-07T11:42:27.085Z,100568.41
2018-11-07T11:45:31.153Z,100564.78
2018-11-07T11:48:35.037Z,100566.29
2018-11-07T11:51:38.930Z,100561.41
2018-11-07T11:54:42.793Z,100559.98
2018-11-07T11:57:47.213Z,100564.50
2018-11-07T12:00:51.118Z,100564.75
2018-11-07T12:03:56.686Z,100560.38
2018-11-07T12:07:00.552Z,100563.16
2018-11-07T12:10:05.116Z,100558.33
2018-11-07T12:13:09.371Z,100560.77
2018-11-07T12:16:13.425Z,100563.17
2018-11-07T12:19:17.690Z,100562.19
2018-11-07T12:22:21.584Z,100563.32
2018-11-07T12:25:25.491Z,100559.42
2018-11-07T12:28:29.382Z,100563.52
2018-11-07T12:31:33.267Z,100560.05
2018-11-07T12:34:37.358Z,100568.87
2018-11-07T12:37:41.870Z,100562.78
2018-11-07T12:40:45.969Z,100562.25
2018-11-07T12:43:49.860Z,100563.83
2018-11-07T12:46:53.745Z,100570.45
2018-11-07T12:49:58.095Z,100566.98
2018-11-07T12:53:02.098Z,100570.33
2018-11-07T12:56:06.298Z,100561.72
2018-11-07T12:59:10.182Z,100565.41
2018-11-07T13:02:14.582Z,100567.89
2018-11-07T13:05:19.530Z,100568.19
2018-11-07T13:08:23.755Z,100563.38
2018-11-07T13:11:27.733Z,100567.52
2018-11-07T13:14:31.770Z,100565.25
2018-11-07T13:17:36.002Z,100564.71
2018-11-07T13:20:39.877Z,100565.83
2018-11-07T13:23:43.769Z,100571.83
2018-11-07T13:26:47.765Z,100564.04
2018-11-07T13:29:51.763Z,100564.79
2018-11-07T13:32:55.782Z,100567.65
2018-11-07T13:35:59.794Z,100561.60
2018-11-07T13:39:06.805Z,100561.60
2018-11-07T13:42:10.650Z,100559.78
2018-11-07T13:45:16.107Z,100561.44
2018-11-07T13:48:20.213Z,100563.88
2018-11-07T13:51:24.394Z,100569.84
2018-11-07T13:54:28.418Z,100573.16
2018-11-07T13:57:32.913Z,100570.58
2018-11-07T14:00:36.926Z,100574.27
2018-11-07T14:03:40.928Z,100574.19
2018-11-07T14:06:45.146Z,100569.42
2018-11-07T14:09:49.032Z,100567.27
2018-11-07T14:12:53.268Z,100574.43
2018-11-07T14:15:57.701Z,100573.52
2018-11-07T14:19:02.342Z,100568.75
2018-11-07T14:22:06.214Z,100568.67
2018-11-07T14:25:10.786Z,100570.78
2018-11-07T14:28:15.280Z,100572.44
2018-11-07T14:31:19.213Z,100577.95
2018-11-07T14:34:23.737Z,100577.49
2018-11-07T14:37:27.973Z,100580.89
2018-11-07T14:40:31.854Z,100579.61
2018-11-07T14:43:35.732Z,100583.00
2018-11-07T14:46:39.684Z,100582.18
2018-11-07T14:49:43.716Z,100585.20
2018-11-07T14:52:47.598Z,100587.31
2018-11-07T14:55:51.477Z,100584.75
2018-11-07T14:58:55.341Z,100595.02
2018-11-07T15:01:59.227Z,100595.94
2018-11-07T15:05:03.457Z,100594.66
2018-11-07T15:08:07.614Z,100592.16
2018-11-07T15:11:11.701Z,100593.08
2018-11-07T15:14:15.714Z,100596.10
2018-11-07T15:17:19.832Z,100602.07
2018-11-07T15:20:23.897Z,100606.00
2018-11-07T15:23:27.777Z,100617.19
2018-11-07T15:26:31.882Z,100613.50
2018-11-07T15:29:35.786Z,100618.23
2018-11-07T15:32:40.741Z,100617.11
2018-11-07T15:35:44.953Z,100619.77
2018-11-07T15:38:48.833Z,100623.70
2018-11-07T15:41:52.713Z,100626.80
2018-11-07T15:44:56.616Z,100633.77
2018-11-07T15:48:00.665Z,100630.04
2018-11-07T15:51:10.709Z,100632.31
2018-11-07T15:54:14.594Z,100644.33
2018-11-07T15:57:18.666Z,100644.86
2018-11-07T16:00:22.737Z,100656.05
2018-11-07T16:03:32.289Z,100655.72
2018-11-07T16:06:36.152Z,100659.27
2018-11-07T16:09:40.033Z,100655.58
2018-11-07T16:12:44.321Z,100659.88
2018-11-07T16:15:48.210Z,100662.61
2018-11-07T16:18:52.312Z,100661.33
2018-11-07T16:21:56.211Z,100665.25
2018-11-07T16:25:00.094Z,100669.60
2018-11-07T16:28:04.313Z,100669.69
2018-11-07T16:31:08.403Z,100676.18
2018-11-07T16:34:12.486Z,100673.77
2018-11-07T16:37:16.718Z,100678.53
2018-11-07T16:40:20.601Z,100683.66
2018-11-07T16:43:24.808Z,100685.02
2018-11-07T16:46:28.734Z,100688.16
2018-11-07T16:49:32.766Z,100689.07
2018-11-07T16:52:36.749Z,100690.89
2018-11-07T16:55:41.078Z,100689.23
2018-11-07T16:58:45.138Z,100694.06
2018-11-07T17:01:49.015Z,100696.25
2018-11-07T17:04:52.898Z,100708.67
2018-11-07T17:07:56.793Z,100706.19
2018-11-07T17:11:00.665Z,100710.56
2018-11-07T17:14:04.777Z,100712.75
2018-11-07T17:17:08.661Z,100719.24
2018-11-07T17:20:13.849Z,100712.53
2018-11-07T17:23:18.527Z,100716.42
2018-11-07T17:26:21.802Z,100721.55
2018-11-07T17:29:25.669Z,100717.74
2018-11-07T17:32:29.564Z,100722.13
2018-11-07T17:35:33.476Z,100726.50
2018-11-07T17:38:37.431Z,100738.05
2018-11-07T17:41:41.790Z,100732.61
2018-11-07T17:46:15.376Z,100731.85
2018-11-07T17:49:19.263Z,100738.84
2018-11-07T17:52:23.159Z,100741.86
2018-11-07T17:55:27.034Z,100741.92
2018-11-07T17:58:30.913Z,100744.95
2018-11-07T18:01:34.782Z,100739.51
2018-11-07T18:04:38.680Z,100740.41
2018-11-07T18:07:42.943Z,100743.95
2018-11-07T18:10:46.965Z,100744.38
2018-11-07T18:13:51.194Z,100741.43
2018-11-07T18:16:55.063Z,100740.30
2018-11-07T18:19:59.486Z,100743.38
2018-11-07T18:23:03.702Z,100743.56
2018-11-07T18:26:07.582Z,100748.20
2018-11-07T18:29:11.732Z,100752.17
2018-11-07T18:32:16.204Z,100755.63
2018-11-07T18:35:20.746Z,100752.38
2018-11-07T18:38:24.704Z,100761.69
2018-11-07T18:41:28.597Z,100764.31
2018-11-07T18:44:32.830Z,100769.14
2018-11-07T18:47:37.108Z,100772.67
2018-11-07T18:50:41.021Z,100765.23
2018-11-07T18:53:45.136Z,100764.41
2018-11-07T18:56:48.983Z,100770.36
2018-11-07T18:59:53.198Z,100770.36
2018-11-07T19:02:57.287Z,100768.84
2018-11-07T19:06:01.507Z,100767.62
2018-11-07T19:09:07.514Z,100780.38
2018-11-07T19:12:11.421Z,100777.74
2018-11-07T19:15:15.991Z,100774.34
2018-11-07T19:18:19.865Z,100778.64
2018-11-07T19:21:24.083Z,100778.27
2018-11-07T19:24:27.956Z,100775.77
2018-11-07T19:27:31.861Z,100772.30
2018-11-07T19:30:35.745Z,100773.20
2018-11-07T19:33:39.795Z,100781.00
2018-11-07T19:36:43.683Z,100789.59
2018-11-07T19:39:47.764Z,100788.83
2018-11-07T19:42:51.662Z,100791.91
2018-11-07T19:45:55.774Z,100797.11
2018-11-07T19:48:59.866Z,100801.34
2018-11-07T19:52:03.754Z,100797.48
2018-11-07T19:55:10.063Z,100803.96
2018-11-07T19:58:14.094Z,100811.27
2018-11-07T20:01:18.322Z,100812.66
2018-11-07T20:04:22.425Z,100818.16
2018-11-07T20:07:26.550Z,100816.88
2018-11-07T20:10:30.484Z,100826.69
2018-11-07T20:13:34.474Z,100827.59
2018-11-07T20:16:38.572Z,100840.02
2018-11-07T20:19:42.638Z,100848.61
2018-11-07T20:22:46.568Z,100852.32
2018-11-07T20:25:50.605Z,100862.98
2018-11-07T20:28:54.852Z,100862.09
2018-11-07T20:31:58.901Z,100863.98
2018-11-07T20:35:02.777Z,100869.05
2018-11-07T20:38:06.991Z,100867.28
2018-11-07T20:41:11.066Z,100868.56
2018-11-07T20:44:15.153Z,100870.23
2018-11-07T20:47:19.218Z,100878.02
2018-11-07T20:50:23.617Z,100880.13
2018-11-07T20:53:27.938Z,100881.86
2018-11-07T20:56:32.060Z,100883.41
2018-11-07T20:59:35.932Z,100883.02
2018-11-07T21:02:40.186Z,100882.67
2018-11-07T21:05:44.064Z,100884.59
2018-11-07T21:08:48.150Z,100885.11
2018-11-07T21:11:52.039Z,100887.23
2018-11-07T21:14:55.929Z,100890.84
2018-11-07T21:17:59.801Z,100893.48
2018-11-07T21:21:04.201Z,100899.62
2018-11-07T21:24:08.404Z,100901.80
2018-11-07T21:27:12.348Z,100898.47
2018-11-07T21:30:16.718Z,100910.77
2018-11-07T21:33:20.593Z,100901.42
2018-11-07T21:36:24.483Z,100903.98
2018-11-07T21:39:28.349Z,100906.98
2018-11-07T21:42:32.239Z,100906.48
2018-11-07T21:45:36.129Z,100910.77
2018-11-07T21:48:40.229Z,100910.26
2018-11-07T21:51:44.433Z,100912.82
2018-11-07T21:54:48.385Z,100913.20
2018-11-07T21:57:52.373Z,100913.97
2018-11-07T22:00:56.265Z,100920.31
2018-11-07T22:04:00.138Z,100914.42
2018-11-07T22:07:04.019Z,100912.63
2018-11-07T22:10:08.926Z,100917.05
2018-11-07T22:13:12.841Z,100919.67
2018-11-07T22:16:16.861Z,100920.12
2018-11-07T22:19:20.949Z,100930.50
2018-11-07T22:22:24.901Z,100925.76
2018-11-07T22:25:28.760Z,100927.09
2018-11-07T22:28:32.973Z,100925.37
2018-11-07T22:31:37.262Z,100928.09
2018-11-07T22:34:41.266Z,100930.94
2018-11-07T22:37:45.777Z,100929.33
2018-11-07T22:40:49.639Z,100938.36
2018-11-07T22:43:53.526Z,100932.58
2018-11-07T22:46:57.406Z,100937.26
2018-11-07T22:50:01.277Z,100933.95
2018-11-07T22:53:05.153Z,100936.19
2018-11-07T22:56:09.044Z,100939.70
2018-11-07T22:59:12.919Z,100944.83
2018-11-07T23:02:16.841Z,100949.50
2018-11-07T23:05:20.922Z,100955.52
2018-11-07T23:08:24.811Z,100955.28
2018-11-07T23:11:28.683Z,100967.37
2018-11-07T23:14:32.598Z,100968.59
2018-11-07T23:17:36.473Z,100966.53
2018-11-07T23:20:40.363Z,100973.95
2018-11-07T23:23:44.246Z,100976.95
2018-11-07T23:26:48.117Z,100979.84
2018-11-07T23:29:52.003Z,100975.55
2018-11-07T23:32:55.881Z,100982.94
2018-11-07T23:35:59.745Z,100977.93
2018-11-07T23:39:05.350Z,100977.78
2018-11-07T23:42:09.234Z,100986.31
2018-11-07T23:45:13.317Z,100984.89
2018-11-07T23:48:17.406Z,100987.19
2018-11-07T23:51:21.279Z,100991.16
2018-11-07T23:54:25.140Z,100987.38
2018-11-07T23:57:29.086Z,100986.66
